logo
Rechercher aéroport 
image banner adimage banner adimage banner ad
image banner ad

FLDF - Delta Farm

Situé à Nega Nega, Zambia

ICAO - , IATA -

Données fournies par Airmate  

Information générale

Coordonnées: S15°46'56" E28°0'48"
Élévation : 3225 feet MSL.
Variation magnétique : -6° East
Voir autres Aéroports à Lusaka Province

Données opérationnelles

Special qualification required
Heure actuelle UTC:
Heure actuelle locale:
Météo à : FLKK - Kenneth Kaunda Intl ( 69 km )
TAF: TAF FLKK 290400Z 2906/3012 11005KT CAVOK BECMG 2907/2909 09010G15KT 9999 SCT020 BECMG 2911/2913 09010KT SCT040 BECMG 2916/2918 15005KT CAVOK
Voir NOTAMs / SUP AIP / TFR affectant cet aéroport [VIEW]
Fréquences de communication: [VIEW]

Pistes:

Identifiant RWYQFULongueur (ft)Largeur (ft)SurfaceLDA (ft)
0872°3165100DIRT
26252°3165100DIRT

Coordonnées de l'aéroport

Adresse: Nega Nega Zambia

Vue satellite de FLDF